sensor_id;sensor_type;location;lat;lon;timestamp;temperature;humidity
21108;DHT22;10712;52.944;9.098;2023-12-20T00:01:33;6.50;94.30
21108;DHT22;10712;52.944;9.098;2023-12-20T00:03:59;6.50;94.30
21108;DHT22;10712;52.944;9.098;2023-12-20T00:06:25;6.50;94.30
21108;DHT22;10712;52.944;9.098;2023-12-20T00:08:50;6.50;94.30
21108;DHT22;10712;52.944;9.098;2023-12-20T00:11:16;6.50;94.30
21108;DHT22;10712;52.944;9.098;2023-12-20T00:13:42;6.50;94.30
21108;DHT22;10712;52.944;9.098;2023-12-20T00:16:08;6.40;94.30
21108;DHT22;10712;52.944;9.098;2023-12-20T00:18:34;6.40;94.30
21108;DHT22;10712;52.944;9.098;2023-12-20T00:21:00;6.40;94.30
21108;DHT22;10712;52.944;9.098;2023-12-20T00:23:26;6.30;94.30
21108;DHT22;10712;52.944;9.098;2023-12-20T00:25:52;6.30;94.30
21108;DHT22;10712;52.944;9.098;2023-12-20T00:28:17;6.30;94.30
21108;DHT22;10712;52.944;9.098;2023-12-20T00:30:43;6.30;94.30
21108;DHT22;10712;52.944;9.098;2023-12-20T00:33:09;6.30;94.30
21108;DHT22;10712;52.944;9.098;2023-12-20T00:35:35;6.20;94.30
21108;DHT22;10712;52.944;9.098;2023-12-20T00:38:01;6.20;94.30
21108;DHT22;10712;52.944;9.098;2023-12-20T00:40:26;6.20;94.30
21108;DHT22;10712;52.944;9.098;2023-12-20T00:42:52;6.20;94.30
21108;DHT22;10712;52.944;9.098;2023-12-20T00:45:18;6.20;94.30
21108;DHT22;10712;52.944;9.098;2023-12-20T00:47:45;6.10;94.30
21108;DHT22;10712;52.944;9.098;2023-12-20T00:50:11;6.10;94.30
21108;DHT22;10712;52.944;9.098;2023-12-20T00:52:37;6.10;94.30
21108;DHT22;10712;52.944;9.098;2023-12-20T00:55:03;6.10;94.30
21108;DHT22;10712;52.944;9.098;2023-12-20T00:57:29;6.10;94.30
21108;DHT22;10712;52.944;9.098;2023-12-20T00:59:56;6.10;94.30
21108;DHT22;10712;52.944;9.098;2023-12-20T01:02:22;6.00;94.30
21108;DHT22;10712;52.944;9.098;2023-12-20T01:04:48;6.00;94.30
21108;DHT22;10712;52.944;9.098;2023-12-20T01:07:13;6.00;94.30
21108;DHT22;10712;52.944;9.098;2023-12-20T01:09:39;6.00;94.30
21108;DHT22;10712;52.944;9.098;2023-12-20T01:12:05;6.00;94.30
21108;DHT22;10712;52.944;9.098;2023-12-20T01:14:31;5.90;94.30
21108;DHT22;10712;52.944;9.098;2023-12-20T01:16:57;5.90;94.30
21108;DHT22;10712;52.944;9.098;2023-12-20T01:19:22;5.90;94.30
21108;DHT22;10712;52.944;9.098;2023-12-20T01:21:50;5.90;94.30
21108;DHT22;10712;52.944;9.098;2023-12-20T01:24:16;5.90;94.30
21108;DHT22;10712;52.944;9.098;2023-12-20T01:26:41;5.90;94.30
21108;DHT22;10712;52.944;9.098;2023-12-20T01:29:07;5.90;94.30
21108;DHT22;10712;52.944;9.098;2023-12-20T01:31:33;5.80;94.30
21108;DHT22;10712;52.944;9.098;2023-12-20T01:33:59;5.90;94.30
21108;DHT22;10712;52.944;9.098;2023-12-20T01:36:25;5.80;94.30
21108;DHT22;10712;52.944;9.098;2023-12-20T01:38:50;5.80;94.30
21108;DHT22;10712;52.944;9.098;2023-12-20T01:41:16;5.80;94.30
21108;DHT22;10712;52.944;9.098;2023-12-20T01:43:42;5.80;94.30
21108;DHT22;10712;52.944;9.098;2023-12-20T01:46:08;5.80;94.30
21108;DHT22;10712;52.944;9.098;2023-12-20T01:48:34;5.80;94.30
21108;DHT22;10712;52.944;9.098;2023-12-20T01:51:02;5.80;94.30
21108;DHT22;10712;52.944;9.098;2023-12-20T01:53:28;5.80;94.30
21108;DHT22;10712;52.944;9.098;2023-12-20T01:55:56;5.80;94.30
21108;DHT22;10712;52.944;9.098;2023-12-20T01:58:24;5.80;94.30
21108;DHT22;10712;52.944;9.098;2023-12-20T02:00:51;5.70;94.30
21108;DHT22;10712;52.944;9.098;2023-12-20T02:03:18;5.70;94.30
21108;DHT22;10712;52.944;9.098;2023-12-20T02:05:44;5.70;94.30
21108;DHT22;10712;52.944;9.098;2023-12-20T02:08:11;5.80;94.30
21108;DHT22;10712;52.944;9.098;2023-12-20T02:10:37;5.70;94.30
21108;DHT22;10712;52.944;9.098;2023-12-20T02:13:03;5.70;94.30
21108;DHT22;10712;52.944;9.098;2023-12-20T02:15:30;5.70;94.30
21108;DHT22;10712;52.944;9.098;2023-12-20T02:17:56;5.70;94.30
21108;DHT22;10712;52.944;9.098;2023-12-20T02:20:22;5.70;94.30
21108;DHT22;10712;52.944;9.098;2023-12-20T02:22:48;5.70;94.30
21108;DHT22;10712;52.944;9.098;2023-12-20T02:25:13;5.70;94.30
21108;DHT22;10712;52.944;9.098;2023-12-20T02:27:39;5.70;94.30
21108;DHT22;10712;52.944;9.098;2023-12-20T02:30:06;5.70;94.30
21108;DHT22;10712;52.944;9.098;2023-12-20T02:32:32;5.70;94.30
21108;DHT22;10712;52.944;9.098;2023-12-20T02:34:58;5.70;94.30
21108;DHT22;10712;52.944;9.098;2023-12-20T02:37:24;5.60;94.30
21108;DHT22;10712;52.944;9.098;2023-12-20T02:39:50;5.60;94.30
21108;DHT22;10712;52.944;9.098;2023-12-20T02:42:15;5.60;94.30
21108;DHT22;10712;52.944;9.098;2023-12-20T02:44:41;5.60;94.30
21108;DHT22;10712;52.944;9.098;2023-12-20T02:47:07;5.60;94.30
21108;DHT22;10712;52.944;9.098;2023-12-20T02:49:33;5.60;94.30
21108;DHT22;10712;52.944;9.098;2023-12-20T02:51:58;5.60;94.30
21108;DHT22;10712;52.944;9.098;2023-12-20T02:54:24;5.60;94.30
21108;DHT22;10712;52.944;9.098;2023-12-20T02:56:50;5.60;94.30
21108;DHT22;10712;52.944;9.098;2023-12-20T02:59:16;5.60;94.30
21108;DHT22;10712;52.944;9.098;2023-12-20T03:01:43;5.60;94.30
21108;DHT22;10712;52.944;9.098;2023-12-20T03:04:10;5.60;94.30
21108;DHT22;10712;52.944;9.098;2023-12-20T03:06:36;5.60;94.30
21108;DHT22;10712;52.944;9.098;2023-12-20T03:09:02;5.60;94.30
21108;DHT22;10712;52.944;9.098;2023-12-20T03:11:28;5.60;94.30
21108;DHT22;10712;52.944;9.098;2023-12-20T03:13:54;5.60;94.30
21108;DHT22;10712;52.944;9.098;2023-12-20T03:16:21;5.60;94.30
21108;DHT22;10712;52.944;9.098;2023-12-20T03:18:46;5.70;94.30
21108;DHT22;10712;52.944;9.098;2023-12-20T03:21:12;5.70;94.30
21108;DHT22;10712;52.944;9.098;2023-12-20T03:23:38;5.70;94.30
21108;DHT22;10712;52.944;9.098;2023-12-20T03:26:07;5.70;94.30
21108;DHT22;10712;52.944;9.098;2023-12-20T03:28:33;5.70;94.30
21108;DHT22;10712;52.944;9.098;2023-12-20T03:31:00;5.70;94.30
21108;DHT22;10712;52.944;9.098;2023-12-20T03:33:25;5.70;94.30
21108;DHT22;10712;52.944;9.098;2023-12-20T03:35:51;5.70;94.30
21108;DHT22;10712;52.944;9.098;2023-12-20T03:38:17;5.70;94.30
21108;DHT22;10712;52.944;9.098;2023-12-20T03:40:43;5.70;94.30
21108;DHT22;10712;52.944;9.098;2023-12-20T03:43:09;5.70;94.30
21108;DHT22;10712;52.944;9.098;2023-12-20T03:45:35;5.70;94.30
21108;DHT22;10712;52.944;9.098;2023-12-20T03:48:01;5.70;94.30
21108;DHT22;10712;52.944;9.098;2023-12-20T03:50:26;5.70;94.30
21108;DHT22;10712;52.944;9.098;2023-12-20T03:52:52;5.70;94.30
21108;DHT22;10712;52.944;9.098;2023-12-20T03:55:18;5.70;94.30
21108;DHT22;10712;52.944;9.098;2023-12-20T03:57:44;5.70;94.30
21108;DHT22;10712;52.944;9.098;2023-12-20T04:00:11;5.70;94.30
21108;DHT22;10712;52.944;9.098;2023-12-20T04:02:40;5.80;94.30
21108;DHT22;10712;52.944;9.098;2023-12-20T04:05:07;5.80;94.30
21108;DHT22;10712;52.944;9.098;2023-12-20T04:07:35;5.80;94.30
21108;DHT22;10712;52.944;9.098;2023-12-20T04:10:02;5.90;94.30
21108;DHT22;10712;52.944;9.098;2023-12-20T04:12:32;5.90;94.30
21108;DHT22;10712;52.944;9.098;2023-12-20T04:14:59;5.90;94.30
21108;DHT22;10712;52.944;9.098;2023-12-20T04:17:24;5.90;94.30
21108;DHT22;10712;52.944;9.098;2023-12-20T04:19:51;6.00;94.30
21108;DHT22;10712;52.944;9.098;2023-12-20T04:22:18;6.00;94.30
21108;DHT22;10712;52.944;9.098;2023-12-20T04:24:44;6.00;94.30
21108;DHT22;10712;52.944;9.098;2023-12-20T04:27:10;6.00;94.30
21108;DHT22;10712;52.944;9.098;2023-12-20T04:29:36;6.00;94.30
21108;DHT22;10712;52.944;9.098;2023-12-20T04:32:02;6.00;94.30
21108;DHT22;10712;52.944;9.098;2023-12-20T04:34:28;6.00;94.30
21108;DHT22;10712;52.944;9.098;2023-12-20T04:36:54;6.00;94.30
21108;DHT22;10712;52.944;9.098;2023-12-20T04:39:20;6.00;94.30
21108;DHT22;10712;52.944;9.098;2023-12-20T04:41:46;6.10;94.30
21108;DHT22;10712;52.944;9.098;2023-12-20T04:44:13;6.10;94.30
21108;DHT22;10712;52.944;9.098;2023-12-20T04:46:39;6.10;94.30
21108;DHT22;10712;52.944;9.098;2023-12-20T04:49:05;6.10;94.30
21108;DHT22;10712;52.944;9.098;2023-12-20T04:51:34;6.10;94.30
21108;DHT22;10712;52.944;9.098;2023-12-20T04:54:01;6.10;94.30
21108;DHT22;10712;52.944;9.098;2023-12-20T04:56:27;6.10;94.20
21108;DHT22;10712;52.944;9.098;2023-12-20T04:58:53;6.10;94.20
21108;DHT22;10712;52.944;9.098;2023-12-20T05:01:19;6.10;94.10
21108;DHT22;10712;52.944;9.098;2023-12-20T05:03:44;6.10;94.20
21108;DHT22;10712;52.944;9.098;2023-12-20T05:06:10;6.10;94.10
21108;DHT22;10712;52.944;9.098;2023-12-20T05:08:36;6.10;94.10
21108;DHT22;10712;52.944;9.098;2023-12-20T05:11:02;6.10;94.10
21108;DHT22;10712;52.944;9.098;2023-12-20T05:13:29;6.10;94.10
21108;DHT22;10712;52.944;9.098;2023-12-20T05:15:54;6.10;94.20
21108;DHT22;10712;52.944;9.098;2023-12-20T05:18:21;6.10;94.10
21108;DHT22;10712;52.944;9.098;2023-12-20T05:20:50;6.10;94.10
21108;DHT22;10712;52.944;9.098;2023-12-20T05:23:16;6.20;94.10
21108;DHT22;10712;52.944;9.098;2023-12-20T05:25:43;6.20;93.90
21108;DHT22;10712;52.944;9.098;2023-12-20T05:28:08;6.20;93.70
21108;DHT22;10712;52.944;9.098;2023-12-20T05:30:34;6.20;93.60
21108;DHT22;10712;52.944;9.098;2023-12-20T05:33:00;6.20;93.50
21108;DHT22;10712;52.944;9.098;2023-12-20T05:35:26;6.20;93.40
21108;DHT22;10712;52.944;9.098;2023-12-20T05:37:52;6.20;93.30
21108;DHT22;10712;52.944;9.098;2023-12-20T05:40:17;6.20;93.30
21108;DHT22;10712;52.944;9.098;2023-12-20T05:42:43;6.20;93.30
21108;DHT22;10712;52.944;9.098;2023-12-20T05:45:09;6.20;93.40
21108;DHT22;10712;52.944;9.098;2023-12-20T05:47:36;6.20;93.30
21108;DHT22;10712;52.944;9.098;2023-12-20T05:50:02;6.30;93.20
21108;DHT22;10712;52.944;9.098;2023-12-20T05:52:28;6.30;93.10
21108;DHT22;10712;52.944;9.098;2023-12-20T05:54:53;6.30;93.00
21108;DHT22;10712;52.944;9.098;2023-12-20T05:57:19;6.30;92.90
21108;DHT22;10712;52.944;9.098;2023-12-20T05:59:45;6.30;92.90
21108;DHT22;10712;52.944;9.098;2023-12-20T06:02:11;6.30;92.90
21108;DHT22;10712;52.944;9.098;2023-12-20T06:04:37;6.30;92.90
21108;DHT22;10712;52.944;9.098;2023-12-20T06:07:02;6.30;92.90
21108;DHT22;10712;52.944;9.098;2023-12-20T06:09:28;6.20;92.90
21108;DHT22;10712;52.944;9.098;2023-12-20T06:11:55;6.30;92.90
21108;DHT22;10712;52.944;9.098;2023-12-20T06:14:21;6.20;92.90
21108;DHT22;10712;52.944;9.098;2023-12-20T06:16:47;6.30;92.90
21108;DHT22;10712;52.944;9.098;2023-12-20T06:19:12;6.20;92.90
21108;DHT22;10712;52.944;9.098;2023-12-20T06:21:39;6.20;93.00
21108;DHT22;10712;52.944;9.098;2023-12-20T06:24:05;6.30;93.00
21108;DHT22;10712;52.944;9.098;2023-12-20T06:26:30;6.20;93.00
21108;DHT22;10712;52.944;9.098;2023-12-20T06:28:56;6.20;93.10
21108;DHT22;10712;52.944;9.098;2023-12-20T06:31:22;6.30;93.00
21108;DHT22;10712;52.944;9.098;2023-12-20T06:33:48;6.30;92.90
21108;DHT22;10712;52.944;9.098;2023-12-20T06:36:23;6.30;92.90
21108;DHT22;10712;52.944;9.098;2023-12-20T06:38:50;6.40;92.80
21108;DHT22;10712;52.944;9.098;2023-12-20T06:41:16;6.40;92.70
21108;DHT22;10712;52.944;9.098;2023-12-20T06:43:42;6.40;92.70
21108;DHT22;10712;52.944;9.098;2023-12-20T06:46:08;6.40;92.60
21108;DHT22;10712;52.944;9.098;2023-12-20T06:48:34;6.40;92.60
21108;DHT22;10712;52.944;9.098;2023-12-20T06:51:00;6.50;92.20
21108;DHT22;10712;52.944;9.098;2023-12-20T06:53:30;6.50;92.00
21108;DHT22;10712;52.944;9.098;2023-12-20T06:55:56;6.50;91.90
21108;DHT22;10712;52.944;9.098;2023-12-20T06:58:23;6.50;91.30
21108;DHT22;10712;52.944;9.098;2023-12-20T07:00:48;6.50;91.30
21108;DHT22;10712;52.944;9.098;2023-12-20T07:03:15;6.50;91.20
21108;DHT22;10712;52.944;9.098;2023-12-20T07:05:41;6.50;91.40
21108;DHT22;10712;52.944;9.098;2023-12-20T07:08:07;6.50;91.60
21108;DHT22;10712;52.944;9.098;2023-12-20T07:10:33;6.50;91.90
21108;DHT22;10712;52.944;9.098;2023-12-20T07:12:59;6.50;92.00
21108;DHT22;10712;52.944;9.098;2023-12-20T07:15:25;6.50;92.10
21108;DHT22;10712;52.944;9.098;2023-12-20T07:17:52;6.50;92.10
21108;DHT22;10712;52.944;9.098;2023-12-20T07:20:18;6.50;92.20
21108;DHT22;10712;52.944;9.098;2023-12-20T07:22:44;6.50;92.30
21108;DHT22;10712;52.944;9.098;2023-12-20T07:25:10;6.40;92.40
21108;DHT22;10712;52.944;9.098;2023-12-20T07:27:36;6.40;92.60
21108;DHT22;10712;52.944;9.098;2023-12-20T07:30:02;6.40;92.80
21108;DHT22;10712;52.944;9.098;2023-12-20T07:32:28;6.40;93.00
21108;DHT22;10712;52.944;9.098;2023-12-20T07:34:53;6.50;93.00
21108;DHT22;10712;52.944;9.098;2023-12-20T07:37:20;6.50;93.00
21108;DHT22;10712;52.944;9.098;2023-12-20T07:39:46;6.50;93.00
21108;DHT22;10712;52.944;9.098;2023-12-20T07:42:12;6.50;93.00
21108;DHT22;10712;52.944;9.098;2023-12-20T07:44:38;6.50;93.00
21108;DHT22;10712;52.944;9.098;2023-12-20T07:47:04;6.50;93.10
21108;DHT22;10712;52.944;9.098;2023-12-20T07:49:33;6.50;92.90
21108;DHT22;10712;52.944;9.098;2023-12-20T07:51:58;6.60;92.80
21108;DHT22;10712;52.944;9.098;2023-12-20T07:54:24;6.60;92.70
21108;DHT22;10712;52.944;9.098;2023-12-20T07:56:50;6.60;92.60
21108;DHT22;10712;52.944;9.098;2023-12-20T07:59:16;6.60;92.60
21108;DHT22;10712;52.944;9.098;2023-12-20T08:01:42;6.60;92.60
21108;DHT22;10712;52.944;9.098;2023-12-20T08:04:08;6.70;92.60
21108;DHT22;10712;52.944;9.098;2023-12-20T08:06:34;6.70;92.50
21108;DHT22;10712;52.944;9.098;2023-12-20T08:09:00;6.70;92.40
21108;DHT22;10712;52.944;9.098;2023-12-20T08:11:25;6.70;92.40
21108;DHT22;10712;52.944;9.098;2023-12-20T08:13:51;6.70;92.50
21108;DHT22;10712;52.944;9.098;2023-12-20T08:16:17;6.70;92.80
21108;DHT22;10712;52.944;9.098;2023-12-20T08:18:43;6.70;93.00
21108;DHT22;10712;52.944;9.098;2023-12-20T08:21:09;6.80;92.90
21108;DHT22;10712;52.944;9.098;2023-12-20T08:23:36;6.80;92.90
21108;DHT22;10712;52.944;9.098;2023-12-20T08:26:08;6.80;92.80
21108;DHT22;10712;52.944;9.098;2023-12-20T08:28:34;6.80;92.90
21108;DHT22;10712;52.944;9.098;2023-12-20T08:31:02;6.90;92.60
21108;DHT22;10712;52.944;9.098;2023-12-20T08:33:28;6.90;92.50
21108;DHT22;10712;52.944;9.098;2023-12-20T08:35:53;6.90;92.40
21108;DHT22;10712;52.944;9.098;2023-12-20T08:38:19;6.90;92.20
21108;DHT22;10712;52.944;9.098;2023-12-20T08:40:45;6.90;92.30
21108;DHT22;10712;52.944;9.098;2023-12-20T08:43:11;6.90;92.30
21108;DHT22;10712;52.944;9.098;2023-12-20T08:45:38;7.00;92.00
21108;DHT22;10712;52.944;9.098;2023-12-20T08:48:04;7.00;91.40
21108;DHT22;10712;52.944;9.098;2023-12-20T08:50:30;7.00;91.50
21108;DHT22;10712;52.944;9.098;2023-12-20T08:52:56;7.00;91.50
21108;DHT22;10712;52.944;9.098;2023-12-20T08:55:22;7.00;91.40
21108;DHT22;10712;52.944;9.098;2023-12-20T08:57:48;7.00;91.50
21108;DHT22;10712;52.944;9.098;2023-12-20T09:00:14;7.10;91.30
21108;DHT22;10712;52.944;9.098;2023-12-20T09:02:41;7.10;91.30
21108;DHT22;10712;52.944;9.098;2023-12-20T09:05:07;7.10;91.20
21108;DHT22;10712;52.944;9.098;2023-12-20T09:07:33;7.10;91.00
21108;DHT22;10712;52.944;9.098;2023-12-20T09:09:59;7.10;91.30
21108;DHT22;10712;52.944;9.098;2023-12-20T09:12:25;7.10;91.40
21108;DHT22;10712;52.944;9.098;2023-12-20T09:14:51;7.10;91.50
21108;DHT22;10712;52.944;9.098;2023-12-20T09:17:18;7.20;91.60
21108;DHT22;10712;52.944;9.098;2023-12-20T09:19:44;7.20;91.50
21108;DHT22;10712;52.944;9.098;2023-12-20T09:22:11;7.20;91.60
21108;DHT22;10712;52.944;9.098;2023-12-20T09:24:37;7.20;91.70
21108;DHT22;10712;52.944;9.098;2023-12-20T09:27:04;7.20;91.90
21108;DHT22;10712;52.944;9.098;2023-12-20T09:29:31;7.20;92.30
21108;DHT22;10712;52.944;9.098;2023-12-20T09:31:57;7.20;92.30
21108;DHT22;10712;52.944;9.098;2023-12-20T09:34:23;7.20;92.50
21108;DHT22;10712;52.944;9.098;2023-12-20T09:36:49;7.20;92.60
21108;DHT22;10712;52.944;9.098;2023-12-20T09:39:19;7.20;92.80
21108;DHT22;10712;52.944;9.098;2023-12-20T09:41:58;7.10;93.00
21108;DHT22;10712;52.944;9.098;2023-12-20T09:44:26;7.10;93.10
21108;DHT22;10712;52.944;9.098;2023-12-20T09:46:53;7.10;93.30
21108;DHT22;10712;52.944;9.098;2023-12-20T09:49:21;7.10;93.30
21108;DHT22;10712;52.944;9.098;2023-12-20T09:51:47;7.10;93.30
21108;DHT22;10712;52.944;9.098;2023-12-20T09:54:17;7.10;93.50
21108;DHT22;10712;52.944;9.098;2023-12-20T09:56:44;7.10;93.60
21108;DHT22;10712;52.944;9.098;2023-12-20T09:59:10;7.10;93.60
21108;DHT22;10712;52.944;9.098;2023-12-20T10:01:39;7.10;93.60
21108;DHT22;10712;52.944;9.098;2023-12-20T10:04:06;7.10;93.70
21108;DHT22;10712;52.944;9.098;2023-12-20T10:06:40;7.10;93.70
21108;DHT22;10712;52.944;9.098;2023-12-20T10:09:10;7.10;93.80
21108;DHT22;10712;52.944;9.098;2023-12-20T10:11:39;7.00;93.90
21108;DHT22;10712;52.944;9.098;2023-12-20T10:14:06;7.00;93.90
21108;DHT22;10712;52.944;9.098;2023-12-20T10:16:33;7.10;94.10
21108;DHT22;10712;52.944;9.098;2023-12-20T10:19:00;7.00;94.10
21108;DHT22;10712;52.944;9.098;2023-12-20T10:21:29;7.00;94.20
21108;DHT22;10712;52.944;9.098;2023-12-20T10:23:56;6.90;93.50
21108;DHT22;10712;52.944;9.098;2023-12-20T10:26:24;6.70;93.10
21108;DHT22;10712;52.944;9.098;2023-12-20T10:28:56;6.50;92.80
21108;DHT22;10712;52.944;9.098;2023-12-20T10:31:33;6.30;92.20
21108;DHT22;10712;52.944;9.098;2023-12-20T10:34:01;6.20;92.00
21108;DHT22;10712;52.944;9.098;2023-12-20T10:36:30;6.00;92.40
21108;DHT22;10712;52.944;9.098;2023-12-20T10:38:58;5.90;92.60
21108;DHT22;10712;52.944;9.098;2023-12-20T10:41:29;5.90;92.90
21108;DHT22;10712;52.944;9.098;2023-12-20T10:44:00;5.80;93.00
21108;DHT22;10712;52.944;9.098;2023-12-20T10:46:28;5.80;93.20
21108;DHT22;10712;52.944;9.098;2023-12-20T10:48:56;5.70;93.30
21108;DHT22;10712;52.944;9.098;2023-12-20T10:51:24;5.70;93.40
21108;DHT22;10712;52.944;9.098;2023-12-20T10:53:55;5.70;93.50
21108;DHT22;10712;52.944;9.098;2023-12-20T10:56:22;5.70;93.70
21108;DHT22;10712;52.944;9.098;2023-12-20T10:58:49;5.60;93.50
21108;DHT22;10712;52.944;9.098;2023-12-20T11:01:16;5.70;93.60
21108;DHT22;10712;52.944;9.098;2023-12-20T11:03:53;5.60;93.80
21108;DHT22;10712;52.944;9.098;2023-12-20T11:06:41;5.70;94.10
21108;DHT22;10712;52.944;9.098;2023-12-20T11:09:17;5.70;94.20
21108;DHT22;10712;52.944;9.098;2023-12-20T11:14:54;5.70;94.20
21108;DHT22;10712;52.944;9.098;2023-12-20T11:17:28;5.80;94.00
21108;DHT22;10712;52.944;9.098;2023-12-20T11:22:24;5.80;93.90
21108;DHT22;10712;52.944;9.098;2023-12-20T11:24:52;5.80;93.90
21108;DHT22;10712;52.944;9.098;2023-12-20T11:27:19;5.80;93.80
21108;DHT22;10712;52.944;9.098;2023-12-20T11:29:52;5.80;93.50
21108;DHT22;10712;52.944;9.098;2023-12-20T11:34:58;5.90;93.40
21108;DHT22;10712;52.944;9.098;2023-12-20T11:37:51;5.90;93.20
21108;DHT22;10712;52.944;9.098;2023-12-20T11:40:18;6.00;93.00
21108;DHT22;10712;52.944;9.098;2023-12-20T11:42:45;6.00;92.70
21108;DHT22;10712;52.944;9.098;2023-12-20T11:45:16;6.10;92.20
21108;DHT22;10712;52.944;9.098;2023-12-20T11:47:50;6.10;91.70
21108;DHT22;10712;52.944;9.098;2023-12-20T11:50:17;6.10;91.40
21108;DHT22;10712;52.944;9.098;2023-12-20T11:52:43;6.20;91.30
21108;DHT22;10712;52.944;9.098;2023-12-20T11:55:09;6.20;91.30
21108;DHT22;10712;52.944;9.098;2023-12-20T11:57:36;6.30;91.20
21108;DHT22;10712;52.944;9.098;2023-12-20T12:00:03;6.30;91.20
21108;DHT22;10712;52.944;9.098;2023-12-20T12:02:37;6.30;91.00
21108;DHT22;10712;52.944;9.098;2023-12-20T12:05:03;6.40;91.00
21108;DHT22;10712;52.944;9.098;2023-12-20T12:07:32;6.40;90.90
21108;DHT22;10712;52.944;9.098;2023-12-20T12:09:57;6.40;91.00
21108;DHT22;10712;52.944;9.098;2023-12-20T12:12:24;6.50;91.10
21108;DHT22;10712;52.944;9.098;2023-12-20T12:14:53;6.50;91.00
21108;DHT22;10712;52.944;9.098;2023-12-20T12:17:20;6.60;90.60
21108;DHT22;10712;52.944;9.098;2023-12-20T12:19:46;6.60;90.10
21108;DHT22;10712;52.944;9.098;2023-12-20T12:22:13;6.60;90.10
21108;DHT22;10712;52.944;9.098;2023-12-20T12:24:42;6.70;90.20
21108;DHT22;10712;52.944;9.098;2023-12-20T12:27:09;6.70;90.20
21108;DHT22;10712;52.944;9.098;2023-12-20T12:29:37;6.70;90.30
21108;DHT22;10712;52.944;9.098;2023-12-20T12:32:07;6.80;90.40
21108;DHT22;10712;52.944;9.098;2023-12-20T12:34:36;6.80;90.20
21108;DHT22;10712;52.944;9.098;2023-12-20T12:37:03;6.80;90.00
21108;DHT22;10712;52.944;9.098;2023-12-20T12:39:29;6.80;89.90
21108;DHT22;10712;52.944;9.098;2023-12-20T12:41:56;6.80;90.00
21108;DHT22;10712;52.944;9.098;2023-12-20T12:44:22;6.80;90.10
21108;DHT22;10712;52.944;9.098;2023-12-20T12:46:52;6.80;90.30
21108;DHT22;10712;52.944;9.098;2023-12-20T12:49:21;6.90;90.30
21108;DHT22;10712;52.944;9.098;2023-12-20T12:51:48;6.90;90.20
21108;DHT22;10712;52.944;9.098;2023-12-20T12:54:13;6.90;90.10
21108;DHT22;10712;52.944;9.098;2023-12-20T12:56:42;6.90;89.90
21108;DHT22;10712;52.944;9.098;2023-12-20T12:59:08;6.90;89.70
21108;DHT22;10712;52.944;9.098;2023-12-20T13:01:34;6.90;89.40
21108;DHT22;10712;52.944;9.098;2023-12-20T13:04:00;6.90;89.30
21108;DHT22;10712;52.944;9.098;2023-12-20T13:06:29;6.90;89.40
21108;DHT22;10712;52.944;9.098;2023-12-20T13:08:55;6.80;89.50
21108;DHT22;10712;52.944;9.098;2023-12-20T13:11:21;6.80;89.70
21108;DHT22;10712;52.944;9.098;2023-12-20T13:13:46;6.80;89.80
21108;DHT22;10712;52.944;9.098;2023-12-20T13:16:12;6.80;89.80
21108;DHT22;10712;52.944;9.098;2023-12-20T13:18:38;6.80;89.80
21108;DHT22;10712;52.944;9.098;2023-12-20T13:21:08;6.80;89.90
21108;DHT22;10712;52.944;9.098;2023-12-20T13:23:34;6.80;89.90
21108;DHT22;10712;52.944;9.098;2023-12-20T13:26:00;6.80;90.00
21108;DHT22;10712;52.944;9.098;2023-12-20T13:28:26;6.80;90.00
21108;DHT22;10712;52.944;9.098;2023-12-20T13:30:52;6.80;90.10
21108;DHT22;10712;52.944;9.098;2023-12-20T13:33:18;6.80;90.10
21108;DHT22;10712;52.944;9.098;2023-12-20T13:35:43;6.80;90.30
21108;DHT22;10712;52.944;9.098;2023-12-20T13:38:09;6.80;90.30
21108;DHT22;10712;52.944;9.098;2023-12-20T13:40:35;6.70;90.50
21108;DHT22;10712;52.944;9.098;2023-12-20T13:43:01;6.70;90.60
21108;DHT22;10712;52.944;9.098;2023-12-20T13:45:28;6.70;90.70
21108;DHT22;10712;52.944;9.098;2023-12-20T13:47:54;6.70;90.80
21108;DHT22;10712;52.944;9.098;2023-12-20T13:50:20;6.60;90.90
21108;DHT22;10712;52.944;9.098;2023-12-20T13:52:45;6.60;91.00
21108;DHT22;10712;52.944;9.098;2023-12-20T13:55:11;6.60;91.10
21108;DHT22;10712;52.944;9.098;2023-12-20T13:57:37;6.60;91.10
21108;DHT22;10712;52.944;9.098;2023-12-20T14:00:04;6.60;91.30
21108;DHT22;10712;52.944;9.098;2023-12-20T14:02:32;6.60;91.20
21108;DHT22;10712;52.944;9.098;2023-12-20T14:04:58;6.50;91.20
21108;DHT22;10712;52.944;9.098;2023-12-20T14:07:24;6.50;91.10
21108;DHT22;10712;52.944;9.098;2023-12-20T14:09:50;6.50;91.00
21108;DHT22;10712;52.944;9.098;2023-12-20T14:12:15;6.50;90.70
21108;DHT22;10712;52.944;9.098;2023-12-20T14:14:41;6.50;90.40
21108;DHT22;10712;52.944;9.098;2023-12-20T14:17:07;6.50;90.00
21108;DHT22;10712;52.944;9.098;2023-12-20T14:19:33;6.40;90.20
21108;DHT22;10712;52.944;9.098;2023-12-20T14:21:59;6.40;90.20
21108;DHT22;10712;52.944;9.098;2023-12-20T14:24:28;6.40;90.20
21108;DHT22;10712;52.944;9.098;2023-12-20T14:26:54;6.40;90.00
21108;DHT22;10712;52.944;9.098;2023-12-20T14:29:20;6.40;90.00
21108;DHT22;10712;52.944;9.098;2023-12-20T14:31:46;6.40;90.00
21108;DHT22;10712;52.944;9.098;2023-12-20T14:34:12;6.40;89.90
21108;DHT22;10712;52.944;9.098;2023-12-20T14:36:38;6.40;89.90
21108;DHT22;10712;52.944;9.098;2023-12-20T14:39:04;6.40;89.60
21108;DHT22;10712;52.944;9.098;2023-12-20T14:41:32;6.40;89.60
21108;DHT22;10712;52.944;9.098;2023-12-20T14:43:58;6.40;89.60
21108;DHT22;10712;52.944;9.098;2023-12-20T14:46:25;6.40;89.50
21108;DHT22;10712;52.944;9.098;2023-12-20T14:48:51;6.40;89.40
21108;DHT22;10712;52.944;9.098;2023-12-20T14:51:17;6.40;89.40
21108;DHT22;10712;52.944;9.098;2023-12-20T14:53:43;6.40;89.50
21108;DHT22;10712;52.944;9.098;2023-12-20T14:56:09;6.40;89.60
21108;DHT22;10712;52.944;9.098;2023-12-20T14:58:34;6.40;89.50
21108;DHT22;10712;52.944;9.098;2023-12-20T15:01:01;6.30;89.50
21108;DHT22;10712;52.944;9.098;2023-12-20T15:03:27;6.30;89.70
21108;DHT22;10712;52.944;9.098;2023-12-20T15:05:54;6.40;89.70
21108;DHT22;10712;52.944;9.098;2023-12-20T15:08:20;6.40;89.70
21108;DHT22;10712;52.944;9.098;2023-12-20T15:10:47;6.30;89.80
21108;DHT22;10712;52.944;9.098;2023-12-20T15:13:12;6.30;89.80
21108;DHT22;10712;52.944;9.098;2023-12-20T15:15:38;6.30;90.00
21108;DHT22;10712;52.944;9.098;2023-12-20T15:18:04;6.30;90.00
21108;DHT22;10712;52.944;9.098;2023-12-20T15:20:30;6.30;90.10
21108;DHT22;10712;52.944;9.098;2023-12-20T15:22:59;6.30;90.10
21108;DHT22;10712;52.944;9.098;2023-12-20T15:25:30;6.30;90.10
21108;DHT22;10712;52.944;9.098;2023-12-20T15:27:56;6.30;90.10
21108;DHT22;10712;52.944;9.098;2023-12-20T15:30:22;6.30;90.20
21108;DHT22;10712;52.944;9.098;2023-12-20T15:32:52;6.40;90.30
21108;DHT22;10712;52.944;9.098;2023-12-20T15:35:18;6.40;90.30
21108;DHT22;10712;52.944;9.098;2023-12-20T15:37:43;6.40;90.30
21108;DHT22;10712;52.944;9.098;2023-12-20T15:40:10;6.40;90.20
21108;DHT22;10712;52.944;9.098;2023-12-20T15:42:37;6.40;90.30
21108;DHT22;10712;52.944;9.098;2023-12-20T15:45:04;6.40;90.20
21108;DHT22;10712;52.944;9.098;2023-12-20T15:47:31;6.40;90.20
21108;DHT22;10712;52.944;9.098;2023-12-20T15:49:57;6.40;90.20